createdAt,value
2022-11-22T00:00:28.110Z,11.70
2022-11-22T00:02:55.086Z,11.35
2022-11-22T00:05:22.083Z,11.15
2022-11-22T00:07:49.010Z,10.38
2022-11-22T00:10:16.297Z,9.70
2022-11-22T00:12:43.599Z,9.88
2022-11-22T00:15:11.261Z,9.38
2022-11-22T00:17:38.135Z,8.88
2022-11-22T00:20:06.967Z,8.27
2022-11-22T00:22:33.833Z,9.03
2022-11-22T00:25:00.796Z,8.00
2022-11-22T00:27:27.635Z,8.85
2022-11-22T00:29:54.558Z,7.78
2022-11-22T00:32:21.691Z,7.80
2022-11-22T00:34:48.532Z,6.85
2022-11-22T00:37:15.395Z,7.47
2022-11-22T00:39:42.260Z,7.65
2022-11-22T00:42:09.213Z,7.35
2022-11-22T00:44:36.017Z,6.55
2022-11-22T00:47:02.806Z,6.43
2022-11-22T00:49:29.875Z,7.38
2022-11-22T00:51:56.893Z,6.15
2022-11-22T00:54:23.692Z,6.55
2022-11-22T00:56:50.551Z,6.70
2022-11-22T00:59:17.390Z,6.35
2022-11-22T01:01:44.341Z,6.53
2022-11-22T01:04:11.212Z,6.40
2022-11-22T01:06:38.058Z,6.47
2022-11-22T01:09:04.917Z,6.22
2022-11-22T01:11:31.733Z,6.40
2022-11-22T01:13:58.582Z,5.72
2022-11-22T01:16:28.523Z,5.97
2022-11-22T01:18:55.372Z,6.28
2022-11-22T01:21:22.182Z,5.75
2022-11-22T01:23:49.005Z,6.05
2022-11-22T01:26:15.845Z,5.93
2022-11-22T01:28:43.245Z,5.90
2022-11-22T01:31:10.187Z,4.97
2022-11-22T01:33:37.028Z,5.13
2022-11-22T01:38:31.504Z,5.55
2022-11-22T01:40:58.382Z,5.28
2022-11-22T01:43:27.995Z,5.22
2022-11-22T01:46:02.987Z,5.13
2022-11-22T01:48:38.519Z,4.47
2022-11-22T01:51:20.541Z,5.00
2022-11-22T01:53:47.838Z,4.68
2022-11-22T01:56:17.086Z,4.57
2022-11-22T01:58:45.579Z,5.20
2022-11-22T02:01:12.636Z,4.43
2022-11-22T02:03:41.644Z,4.63
2022-11-22T02:06:08.775Z,4.40
2022-11-22T02:08:48.479Z,4.50
2022-11-22T02:13:44.197Z,4.45
2022-11-22T02:16:11.967Z,4.30
2022-11-22T02:18:39.078Z,4.07
2022-11-22T02:21:06.551Z,4.20
2022-11-22T02:24:07.701Z,4.10
2022-11-22T02:26:34.586Z,3.88
2022-11-22T02:29:07.007Z,3.90
2022-11-22T02:31:39.957Z,3.97
2022-11-22T02:34:07.231Z,3.88
2022-11-22T02:36:37.903Z,3.92
2022-11-22T02:39:05.299Z,4.03
2022-11-22T02:41:32.473Z,4.18
2022-11-22T02:43:59.478Z,3.60
2022-11-22T02:46:26.343Z,3.85
2022-11-22T02:48:53.245Z,3.60
2022-11-22T02:51:20.368Z,3.75
2022-11-22T02:53:49.486Z,3.50
2022-11-22T02:56:18.206Z,3.60
2022-11-22T02:58:45.264Z,3.42
2022-11-22T03:01:13.005Z,3.38
2022-11-22T03:03:39.874Z,3.42
2022-11-22T03:06:06.758Z,3.20
2022-11-22T03:08:33.624Z,3.20
2022-11-22T03:11:00.541Z,3.63
2022-11-22T03:13:27.506Z,3.58
2022-11-22T03:15:55.472Z,3.30
2022-11-22T03:18:22.396Z,2.92
2022-11-22T03:20:49.245Z,2.97
2022-11-22T03:23:17.278Z,3.10
2022-11-22T03:25:44.224Z,3.30
2022-11-22T03:28:11.074Z,3.10
2022-11-22T03:30:41.979Z,3.28
2022-11-22T03:33:09.060Z,2.70
2022-11-22T03:35:35.915Z,2.95
2022-11-22T03:38:03.016Z,2.78
2022-11-22T03:40:29.878Z,2.97
2022-11-22T03:43:00.174Z,3.05
2022-11-22T03:45:28.480Z,2.80
2022-11-22T03:47:56.768Z,2.72
2022-11-22T03:50:24.434Z,2.88
2022-11-22T03:52:51.316Z,2.80
2022-11-22T03:55:18.262Z,2.70
2022-11-22T03:57:45.089Z,2.63
2022-11-22T04:00:12.749Z,2.55
2022-11-22T04:02:39.590Z,2.55
2022-11-22T04:05:06.880Z,2.75
2022-11-22T04:07:33.792Z,2.50
2022-11-22T04:10:00.673Z,2.72
2022-11-22T04:12:30.050Z,2.75
2022-11-22T04:15:06.624Z,3.17
2022-11-22T04:17:42.077Z,2.30
2022-11-22T04:20:38.412Z,2.45
2022-11-22T04:23:07.563Z,2.40
2022-11-22T04:25:36.090Z,2.35
2022-11-22T04:28:03.169Z,2.90
2022-11-22T04:30:48.746Z,2.50
2022-11-22T04:33:16.518Z,2.72
2022-11-22T04:35:45.111Z,2.40
2022-11-22T04:38:13.096Z,2.47
2022-11-22T04:40:40.178Z,2.10
2022-11-22T04:43:26.414Z,2.45
2022-11-22T04:45:53.539Z,2.47
2022-11-22T04:48:20.378Z,2.60
2022-11-22T04:51:06.024Z,2.47
2022-11-22T04:53:32.828Z,2.10
2022-11-22T04:55:59.702Z,2.13
2022-11-22T04:58:26.578Z,2.28
2022-11-22T05:00:53.552Z,2.10
2022-11-22T05:03:20.748Z,2.15
2022-11-22T05:05:47.569Z,2.13
2022-11-22T05:08:14.858Z,2.13
2022-11-22T05:10:56.953Z,2.38
2022-11-22T05:16:04.270Z,1.92
2022-11-22T05:18:31.793Z,2.05
2022-11-22T05:21:00.184Z,2.15
2022-11-22T05:23:45.462Z,2.00
2022-11-22T05:26:12.303Z,1.92
2022-11-22T05:28:39.601Z,1.88
2022-11-22T05:31:11.403Z,2.45
2022-11-22T05:33:40.176Z,1.98
2022-11-22T05:36:07.971Z,1.70
2022-11-22T05:38:36.110Z,1.77
2022-11-22T05:41:04.421Z,2.00
2022-11-22T05:43:31.899Z,1.85
2022-11-22T05:46:07.484Z,1.90
2022-11-22T05:48:34.564Z,2.13
2022-11-22T05:51:06.155Z,1.50
2022-11-22T05:53:33.412Z,1.73
2022-11-22T05:56:07.862Z,2.00
2022-11-22T05:58:35.222Z,1.83
2022-11-22T06:01:11.170Z,1.65
2022-11-22T06:03:38.134Z,2.00
2022-11-22T06:06:06.011Z,2.08
2022-11-22T06:08:34.195Z,1.65
2022-11-22T06:11:09.614Z,1.63
2022-11-22T06:13:37.927Z,2.03
2022-11-22T06:16:06.577Z,1.80
2022-11-22T06:18:34.102Z,1.70
2022-11-22T06:21:04.709Z,1.70
2022-11-22T06:23:31.913Z,1.52
2022-11-22T06:26:22.214Z,1.73
2022-11-22T06:28:49.525Z,1.48
2022-11-22T06:31:24.647Z,1.40
2022-11-22T06:33:53.722Z,1.50
2022-11-22T06:36:25.887Z,1.85
2022-11-22T06:38:52.791Z,1.58
2022-11-22T06:41:26.750Z,1.70
2022-11-22T06:43:56.177Z,1.63
2022-11-22T06:46:25.809Z,1.60
2022-11-22T06:48:52.956Z,1.60
2022-11-22T06:51:22.215Z,1.40
2022-11-22T06:53:49.977Z,1.40
2022-11-22T06:56:27.595Z,1.33
2022-11-22T06:58:55.435Z,1.52
2022-11-22T07:01:27.749Z,1.48
2022-11-22T07:03:59.084Z,1.50
2022-11-22T07:06:31.348Z,1.40
2022-11-22T07:08:59.522Z,1.60
2022-11-22T07:11:28.791Z,1.20
2022-11-22T07:14:01.860Z,1.00
2022-11-22T07:16:33.627Z,1.73
2022-11-22T07:19:00.985Z,1.30
2022-11-22T07:21:28.491Z,1.17
2022-11-22T07:23:56.046Z,1.33
2022-11-22T07:26:25.177Z,1.30
2022-11-22T07:28:52.245Z,1.40
2022-11-22T07:31:19.421Z,1.25
2022-11-22T07:33:46.574Z,23.98
2022-11-22T07:36:20.157Z,28.50
2022-11-22T07:38:48.574Z,22.95
2022-11-22T07:41:17.161Z,20.13
2022-11-22T07:43:44.518Z,17.92
2022-11-22T07:46:31.634Z,16.33
2022-11-22T07:48:59.688Z,14.07
2022-11-22T07:51:26.741Z,13.27
2022-11-22T07:53:55.077Z,11.70
2022-11-22T07:56:22.010Z,10.30
2022-11-22T07:58:48.986Z,10.30
2022-11-22T08:01:17.495Z,8.93
2022-11-22T08:03:44.889Z,8.80
2022-11-22T08:06:12.882Z,7.68
2022-11-22T08:08:39.800Z,7.57
2022-11-22T08:11:06.919Z,6.60
2022-11-22T08:13:34.797Z,16.20
2022-11-22T08:16:06.690Z,29.33
2022-11-22T08:18:34.673Z,24.80
2022-11-22T08:21:09.873Z,22.38
2022-11-22T08:23:37.777Z,20.05
2022-11-22T08:26:05.445Z,19.48
2022-11-22T08:28:32.462Z,17.98
2022-11-22T08:31:00.847Z,17.40
2022-11-22T08:33:28.063Z,15.82
2022-11-22T08:35:55.143Z,14.95
2022-11-22T08:38:21.968Z,29.27
2022-11-22T08:40:48.901Z,35.00
2022-11-22T08:43:15.753Z,32.63
2022-11-22T08:45:42.652Z,30.20
2022-11-22T08:48:09.477Z,28.80
2022-11-22T08:50:36.329Z,25.95
2022-11-22T08:53:03.384Z,23.77
2022-11-22T08:55:30.330Z,22.17
2022-11-22T08:58:00.763Z,21.02
2022-11-22T09:00:33.159Z,19.48
2022-11-22T09:03:00.512Z,19.38
2022-11-22T09:05:27.552Z,17.85
2022-11-22T09:10:41.250Z,13.80
2022-11-22T09:13:08.107Z,13.82
2022-11-22T09:15:34.986Z,13.85
2022-11-22T09:18:02.718Z,13.18
2022-11-22T09:20:29.760Z,12.50
2022-11-22T09:22:56.635Z,11.80
2022-11-22T09:25:23.483Z,11.57
2022-11-22T09:27:50.328Z,10.75
2022-11-22T09:30:17.281Z,10.98
2022-11-22T09:32:44.842Z,10.45
2022-11-22T09:35:11.742Z,10.48
2022-11-22T09:37:38.575Z,9.27
2022-11-22T09:40:05.980Z,9.35
2022-11-22T09:42:58.152Z,9.55
2022-11-22T09:45:50.238Z,8.55
2022-11-22T09:48:32.170Z,8.18
2022-11-22T09:51:06.698Z,7.93
2022-11-22T09:53:46.980Z,7.70
2022-11-22T09:56:16.180Z,7.35
2022-11-22T09:58:47.781Z,6.88
2022-11-22T10:01:42.006Z,8.93
2022-11-22T10:04:15.950Z,18.02
2022-11-22T10:06:45.807Z,16.08
2022-11-22T10:09:34.195Z,15.63
2022-11-22T10:12:07.251Z,13.27
2022-11-22T10:15:05.034Z,13.13
2022-11-22T10:17:54.463Z,11.65
2022-11-22T10:20:26.719Z,11.05
2022-11-22T10:22:54.216Z,10.18
2022-11-22T10:25:22.129Z,9.70
2022-11-22T10:27:57.649Z,8.98
2022-11-22T10:30:35.067Z,8.93
2022-11-22T10:33:23.576Z,8.27
2022-11-22T10:36:13.630Z,8.38
2022-11-22T10:38:52.428Z,7.88
2022-11-22T10:41:40.256Z,7.80
2022-11-22T10:44:30.291Z,6.80
2022-11-22T10:47:07.081Z,6.82
2022-11-22T10:49:49.922Z,10.02
2022-11-22T10:52:16.782Z,27.50
2022-11-22T10:54:56.551Z,27.02
2022-11-22T11:00:17.533Z,24.27
2022-11-22T11:05:33.585Z,19.60
2022-11-22T11:08:21.767Z,18.38
2022-11-22T11:10:47.397Z,17.35
2022-11-22T11:13:30.199Z,16.90
2022-11-22T11:15:58.553Z,22.90
2022-11-22T11:21:05.833Z,22.33
2022-11-22T11:23:32.683Z,20.55
2022-11-22T11:26:20.345Z,18.60
2022-11-22T11:28:47.396Z,17.25
2022-11-22T11:31:15.793Z,16.73
2022-11-22T11:33:43.630Z,15.48
2022-11-22T11:36:20.641Z,15.32
2022-11-22T11:38:58.209Z,14.10
2022-11-22T11:41:30.483Z,13.38
2022-11-22T11:44:02.493Z,12.27
2022-11-22T11:46:39.491Z,12.38
2022-11-22T11:49:13.949Z,12.07
2022-11-22T11:51:49.944Z,10.70
2022-11-22T11:54:43.667Z,10.77
2022-11-22T11:57:21.778Z,9.85
2022-11-22T11:59:52.327Z,9.60
2022-11-22T12:02:36.232Z,9.02
2022-11-22T12:05:06.692Z,8.52
2022-11-22T12:07:36.657Z,7.78
2022-11-22T12:10:42.301Z,7.80
2022-11-22T12:13:35.313Z,7.35
2022-11-22T12:16:18.963Z,7.38
2022-11-22T12:18:59.668Z,7.60
2022-11-22T12:21:46.135Z,7.07
2022-11-22T12:24:57.248Z,6.80
2022-11-22T12:27:23.027Z,7.00
2022-11-22T12:29:49.957Z,7.07
2022-11-22T12:32:36.577Z,6.32
2022-11-22T12:35:07.610Z,6.50
2022-11-22T12:37:37.271Z,6.43
2022-11-22T12:40:11.927Z,6.25
2022-11-22T12:42:52.599Z,6.10
2022-11-22T12:45:35.281Z,6.38
2022-11-22T12:48:29.664Z,5.72
2022-11-22T12:51:00.618Z,6.00
2022-11-22T12:53:40.418Z,5.80
2022-11-22T12:56:10.115Z,5.70
2022-11-22T12:58:56.314Z,5.82
2022-11-22T13:01:30.569Z,5.80
2022-11-22T13:04:16.383Z,5.90
2022-11-22T13:06:51.996Z,5.50
2022-11-22T13:09:24.156Z,5.38
2022-11-22T13:12:09.971Z,5.13
2022-11-22T13:14:43.517Z,5.50
2022-11-22T13:17:12.290Z,5.22
2022-11-22T13:19:47.099Z,4.90
2022-11-22T13:22:33.073Z,4.70
2022-11-22T13:25:18.487Z,5.32
2022-11-22T13:27:48.560Z,4.47
2022-11-22T13:30:24.087Z,5.28
2022-11-22T13:32:53.656Z,5.45
2022-11-22T13:35:32.669Z,4.68
2022-11-22T13:38:03.549Z,4.72
2022-11-22T13:40:45.686Z,4.60
2022-11-22T13:43:21.631Z,4.47
2022-11-22T13:45:58.457Z,3.90
2022-11-22T13:48:40.615Z,4.15
2022-11-22T13:51:08.984Z,3.90
2022-11-22T13:53:38.335Z,4.38
2022-11-22T13:56:17.148Z,4.10
2022-11-22T13:58:55.920Z,4.93
2022-11-22T14:01:52.455Z,4.00
2022-11-22T14:04:26.697Z,4.00
2022-11-22T14:06:56.212Z,4.03
2022-11-22T14:09:26.691Z,3.33
2022-11-22T14:12:02.453Z,3.97
2022-11-22T14:14:37.678Z,3.78
2022-11-22T14:17:22.135Z,3.47
2022-11-22T14:19:56.385Z,3.38
2022-11-22T14:23:07.822Z,3.20
2022-11-22T14:26:03.921Z,6.25
2022-11-22T14:28:58.829Z,5.03
2022-11-22T14:31:28.447Z,4.63
2022-11-22T14:34:17.480Z,4.10
2022-11-22T14:36:45.652Z,3.42
2022-11-22T14:39:56.017Z,3.90
2022-11-22T14:42:38.214Z,2.92
2022-11-22T14:45:10.842Z,3.00
2022-11-22T14:47:51.752Z,2.95
2022-11-22T14:50:36.993Z,2.88
2022-11-22T14:56:07.122Z,2.75
2022-11-22T14:58:39.389Z,3.00
2022-11-22T15:01:28.248Z,2.85
2022-11-22T15:09:13.539Z,2.85
2022-11-22T15:09:20.509Z,2.38
2022-11-22T15:10:07.514Z,2.70
2022-11-22T15:12:47.190Z,2.40
2022-11-22T15:59:45.303Z,4.95
2022-11-22T16:02:20.875Z,4.43
2022-11-22T16:06:07.874Z,3.95
2022-11-22T16:10:39.826Z,3.38
2022-11-22T16:13:21.819Z,3.33
2022-11-22T16:16:16.851Z,3.10
2022-11-22T16:18:44.514Z,3.65
2022-11-22T16:21:11.463Z,3.25
2022-11-22T16:23:39.389Z,4.57
2022-11-22T16:26:24.880Z,8.35
2022-11-22T16:28:53.610Z,11.68
2022-11-22T16:31:28.765Z,12.85
2022-11-22T16:33:56.470Z,13.23
2022-11-22T16:36:25.285Z,13.23
2022-11-22T16:38:52.186Z,15.32
2022-11-22T16:41:21.054Z,15.48
2022-11-22T16:43:51.088Z,16.48
2022-11-22T16:46:18.755Z,18.52
2022-11-22T16:48:45.685Z,19.85
2022-11-22T16:53:49.506Z,23.45
2022-11-22T16:56:25.185Z,25.45
2022-11-22T16:58:52.931Z,26.27
2022-11-22T17:01:22.239Z,28.48
2022-11-22T17:03:51.415Z,28.77
2022-11-22T17:06:22.908Z,28.15
2022-11-22T17:08:51.760Z,27.77
2022-11-22T17:11:21.435Z,27.48
2022-11-22T17:16:17.777Z,24.50
2022-11-22T17:18:45.292Z,24.33
2022-11-22T17:21:31.511Z,23.38
2022-11-22T17:24:06.997Z,23.25
2022-11-22T17:26:34.830Z,22.92
2022-11-22T17:29:01.874Z,21.33
2022-11-22T17:31:29.073Z,20.40
2022-11-22T17:33:58.688Z,19.02
2022-11-22T17:38:53.867Z,18.60
2022-11-22T17:41:20.992Z,18.17
2022-11-22T17:43:47.823Z,18.17
2022-11-22T17:46:14.718Z,17.42
2022-11-22T17:48:41.571Z,15.98
2022-11-22T17:51:10.039Z,16.30
2022-11-22T17:53:37.086Z,15.40
2022-11-22T17:56:11.916Z,15.30
2022-11-22T17:58:40.263Z,15.02
2022-11-22T18:01:18.060Z,19.17
2022-11-22T18:03:46.113Z,17.15
2022-11-22T18:06:13.702Z,16.80
2022-11-22T18:08:46.446Z,15.48
2022-11-22T18:11:14.773Z,14.65
2022-11-22T18:13:41.857Z,14.02
2022-11-22T18:16:12.294Z,13.98
2022-11-22T18:21:30.677Z,13.85
2022-11-22T18:23:58.572Z,13.07
2022-11-22T18:26:41.784Z,13.82
2022-11-22T18:31:57.376Z,17.48
2022-11-22T18:34:24.510Z,17.70
2022-11-22T18:36:57.682Z,17.13
2022-11-22T18:39:29.401Z,17.83
2022-11-22T18:41:56.795Z,18.13
2022-11-22T18:44:23.645Z,17.00
2022-11-22T18:46:50.539Z,17.20
2022-11-22T18:49:17.431Z,16.77
2022-11-22T18:51:44.352Z,16.35
2022-11-22T18:54:11.401Z,14.95
2022-11-22T18:56:40.284Z,18.15
2022-11-22T18:59:10.003Z,27.80
2022-11-22T19:01:37.117Z,25.33
2022-11-22T19:04:04.478Z,24.42
2022-11-22T19:06:31.517Z,22.92
2022-11-22T19:08:58.554Z,22.20
2022-11-22T19:11:26.111Z,21.60
2022-11-22T19:13:53.173Z,19.00
2022-11-22T19:16:21.981Z,19.13
2022-11-22T19:18:49.868Z,17.67
2022-11-22T19:21:19.287Z,16.73
2022-11-22T19:23:46.953Z,15.60
2022-11-22T19:26:16.327Z,16.45
2022-11-22T19:28:43.467Z,14.95
2022-11-22T19:31:16.322Z,13.80
2022-11-22T19:33:43.274Z,14.77
2022-11-22T19:36:18.211Z,14.43
2022-11-22T19:38:45.699Z,12.70
2022-11-22T19:41:15.369Z,12.65
2022-11-22T19:43:42.423Z,11.52
2022-11-22T19:46:09.291Z,12.32
2022-11-22T19:48:36.111Z,12.75
2022-11-22T19:51:11.330Z,12.38
2022-11-22T19:53:38.904Z,11.02
2022-11-22T19:56:07.952Z,12.40
2022-11-22T19:58:34.944Z,11.75
2022-11-22T20:01:06.284Z,10.88
2022-11-22T20:03:34.660Z,10.88
2022-11-22T20:06:02.440Z,11.35
2022-11-22T20:08:29.835Z,11.70
2022-11-22T20:11:04.968Z,11.27
2022-11-22T20:13:41.499Z,11.07
2022-11-22T20:16:12.623Z,10.90
2022-11-22T20:18:39.571Z,10.55
2022-11-22T20:21:07.538Z,10.23
2022-11-22T20:23:34.478Z,10.27
2022-11-22T20:26:11.363Z,10.07
2022-11-22T20:28:39.575Z,9.95
2022-11-22T20:31:08.213Z,9.50
2022-11-22T20:33:36.498Z,9.47
2022-11-22T20:36:08.892Z,9.85
2022-11-22T20:38:36.983Z,9.25
2022-11-22T20:41:05.930Z,11.68
2022-11-22T20:43:33.725Z,11.65
2022-11-22T20:46:04.253Z,10.93
2022-11-22T20:48:31.839Z,9.63
2022-11-22T20:50:59.919Z,10.50
2022-11-22T20:53:27.534Z,8.88
2022-11-22T20:55:54.652Z,8.90
2022-11-22T20:58:21.972Z,8.98
2022-11-22T21:00:48.905Z,8.20
2022-11-22T21:03:15.867Z,7.80
2022-11-22T21:05:46.075Z,8.35
2022-11-22T21:08:13.156Z,7.07
2022-11-22T21:10:40.041Z,7.55
2022-11-22T21:13:07.138Z,7.68
2022-11-22T21:15:34.316Z,6.85
2022-11-22T21:18:24.259Z,7.43
2022-11-22T21:20:51.426Z,6.45
2022-11-22T21:23:18.229Z,6.25
2022-11-22T21:25:46.158Z,6.00
2022-11-22T21:28:13.148Z,6.32
2022-11-22T21:30:40.232Z,6.38
2022-11-22T21:33:07.100Z,5.90
2022-11-22T21:35:33.931Z,5.95
2022-11-22T21:38:00.744Z,6.45
2022-11-22T21:40:27.608Z,6.15
2022-11-22T21:42:54.414Z,6.20
2022-11-22T21:45:21.251Z,5.78
2022-11-22T21:47:49.760Z,5.60
2022-11-22T21:50:17.070Z,5.43
2022-11-22T21:52:43.956Z,5.55
2022-11-22T21:55:11.635Z,5.63
2022-11-22T21:57:38.665Z,5.38
2022-11-22T22:00:06.393Z,5.72
2022-11-22T22:02:33.327Z,5.28
2022-11-22T22:05:00.227Z,5.32
2022-11-22T22:07:51.314Z,5.13
2022-11-22T22:10:15.161Z,5.18
2022-11-22T22:12:42.127Z,4.75
2022-11-22T22:15:12.972Z,4.65
2022-11-22T22:17:39.812Z,4.65
2022-11-22T22:20:07.212Z,4.78
2022-11-22T22:22:37.778Z,4.68
2022-11-22T22:25:05.613Z,5.00
2022-11-22T22:27:33.224Z,4.57
2022-11-22T22:30:00.677Z,4.75
2022-11-22T22:32:28.279Z,4.35
2022-11-22T22:34:55.197Z,5.40
2022-11-22T22:37:22.099Z,7.38
2022-11-22T22:39:51.604Z,8.45
2022-11-22T22:42:19.111Z,9.43
2022-11-22T22:44:46.290Z,8.45
2022-11-22T22:47:13.767Z,7.72
2022-11-22T22:49:40.557Z,7.05
2022-11-22T22:52:07.409Z,6.30
2022-11-22T22:54:34.761Z,6.88
2022-11-22T22:57:02.523Z,5.82
2022-11-22T22:59:29.863Z,5.45
2022-11-22T23:01:56.850Z,5.07
2022-11-22T23:04:23.852Z,4.80
2022-11-22T23:06:50.748Z,4.43
2022-11-22T23:09:17.632Z,4.63
2022-11-22T23:12:02.913Z,4.40
2022-11-22T23:14:30.250Z,6.18
2022-11-22T23:16:58.255Z,8.25
2022-11-22T23:19:26.540Z,7.68
2022-11-22T23:21:53.810Z,6.38
2022-11-22T23:24:20.918Z,6.60
2022-11-22T23:26:48.124Z,5.78
2022-11-22T23:29:15.003Z,5.57
2022-11-22T23:31:41.819Z,5.78
2022-11-22T23:34:09.531Z,5.32
2022-11-22T23:36:40.683Z,4.47
2022-11-22T23:39:08.374Z,4.80
2022-11-22T23:41:35.353Z,4.25
2022-11-22T23:44:02.220Z,3.83
2022-11-22T23:46:29.188Z,4.18
2022-11-22T23:48:58.011Z,4.45
2022-11-22T23:51:26.319Z,4.07
2022-11-22T23:53:57.247Z,4.45
2022-11-22T23:56:24.606Z,4.07
2022-11-22T23:58:51.970Z,4.22
